createdAt,value
2019-03-21T00:01:24.899Z,65.20
2019-03-21T00:03:54.930Z,64.50
2019-03-21T00:06:22.909Z,64.20
2019-03-21T00:08:51.373Z,64.20
2019-03-21T00:11:57.043Z,64.30
2019-03-21T00:14:32.063Z,64.50
2019-03-21T00:16:59.867Z,64.80
2019-03-21T00:19:29.880Z,64.90
2019-03-21T00:21:58.883Z,64.50
2019-03-21T00:24:26.899Z,64.20
2019-03-21T00:26:55.871Z,64.40
2019-03-21T00:29:23.406Z,64.10
2019-03-21T00:31:51.122Z,63.80
2019-03-21T00:34:20.272Z,64.30
2019-03-21T00:36:48.519Z,64.20
2019-03-21T00:39:16.217Z,64.30
2019-03-21T00:41:44.155Z,64.60
2019-03-21T00:44:18.080Z,64.80
2019-03-21T00:46:41.475Z,63.90
2019-03-21T00:49:09.955Z,63.90
2019-03-21T00:51:38.127Z,63.70
2019-03-21T00:54:05.869Z,63.30
2019-03-21T00:56:34.223Z,63.40
2019-03-21T00:59:01.835Z,63.50
2019-03-21T01:01:30.124Z,63.10
2019-03-21T01:03:59.893Z,63.60
2019-03-21T01:06:27.347Z,63.70
2019-03-21T01:08:55.379Z,64.00
2019-03-21T01:11:23.079Z,64.10
2019-03-21T01:13:51.456Z,64.10
2019-03-21T01:16:20.101Z,64.10
2019-03-21T01:18:48.356Z,64.30
2019-03-21T01:21:16.026Z,65.30
2019-03-21T01:23:43.572Z,64.50
2019-03-21T01:26:13.534Z,64.10
2019-03-21T01:28:41.420Z,64.60
2019-03-21T01:31:09.403Z,64.40
2019-03-21T01:33:37.222Z,64.20
2019-03-21T01:36:05.164Z,63.90
2019-03-21T01:38:33.282Z,64.50
2019-03-21T01:41:01.059Z,64.00
2019-03-21T01:43:28.787Z,63.90
2019-03-21T01:45:56.352Z,64.30
2019-03-21T01:48:24.607Z,64.30
2019-03-21T01:50:52.379Z,63.60
2019-03-21T01:53:20.123Z,64.00
2019-03-21T01:55:48.105Z,63.80
2019-03-21T01:58:16.063Z,63.60
2019-03-21T02:00:44.939Z,63.70
2019-03-21T02:03:12.459Z,64.30
2019-03-21T02:05:41.479Z,63.60
2019-03-21T02:08:10.553Z,63.40
2019-03-21T02:10:38.195Z,63.10
2019-03-21T02:13:05.891Z,63.60
2019-03-21T02:15:33.803Z,63.80
2019-03-21T02:18:02.364Z,63.80
2019-03-21T02:20:30.110Z,64.00
2019-03-21T02:22:58.631Z,64.10
2019-03-21T02:25:27.739Z,63.50
2019-03-21T02:27:56.328Z,63.90
2019-03-21T02:30:26.784Z,64.00
2019-03-21T02:32:57.651Z,63.80
2019-03-21T02:35:25.173Z,63.50
2019-03-21T02:37:53.047Z,63.20
2019-03-21T02:40:21.689Z,64.40
2019-03-21T02:42:49.380Z,64.10
2019-03-21T02:45:19.059Z,64.30
2019-03-21T02:47:47.364Z,63.70
2019-03-21T02:50:18.733Z,64.00
2019-03-21T02:52:48.341Z,64.00
2019-03-21T02:55:16.052Z,64.00
2019-03-21T02:57:44.175Z,63.70
2019-03-21T03:00:15.335Z,63.60
2019-03-21T03:02:43.172Z,64.20
2019-03-21T03:05:14.713Z,64.50
2019-03-21T03:07:42.454Z,64.30
2019-03-21T03:10:13.428Z,63.90
2019-03-21T03:12:43.084Z,64.10
2019-03-21T03:15:22.622Z,64.60
2019-03-21T03:17:42.785Z,64.80
2019-03-21T03:20:13.407Z,64.20
2019-03-21T03:22:41.038Z,63.90
2019-03-21T03:25:09.168Z,64.00
2019-03-21T03:27:37.553Z,65.20
2019-03-21T03:30:06.877Z,64.80
2019-03-21T03:32:34.685Z,64.90
2019-03-21T03:35:02.875Z,64.80
2019-03-21T03:37:31.568Z,64.40
2019-03-21T03:40:00.383Z,64.00
2019-03-21T03:42:28.399Z,64.10
2019-03-21T03:44:55.928Z,64.80
2019-03-21T03:47:23.973Z,64.70
2019-03-21T03:49:53.112Z,64.40
2019-03-21T03:52:21.201Z,64.10
2019-03-21T03:54:48.991Z,64.00
2019-03-21T03:57:16.717Z,64.60
2019-03-21T03:59:46.259Z,64.60
2019-03-21T04:02:14.008Z,64.60
2019-03-21T04:04:43.465Z,64.40
2019-03-21T04:07:11.344Z,64.70
2019-03-21T04:09:39.500Z,64.90
2019-03-21T04:12:07.536Z,64.40
2019-03-21T04:14:35.071Z,64.50
2019-03-21T04:17:02.947Z,65.00
2019-03-21T04:19:31.015Z,64.80
2019-03-21T04:22:00.449Z,64.80
2019-03-21T04:24:28.985Z,64.40
2019-03-21T04:26:57.411Z,64.50
2019-03-21T04:29:25.581Z,64.30
2019-03-21T04:31:53.396Z,64.30
2019-03-21T04:34:21.171Z,64.10
2019-03-21T04:36:48.833Z,63.90
2019-03-21T04:39:19.070Z,63.80
2019-03-21T04:41:46.760Z,64.20
2019-03-21T04:44:14.379Z,64.70
2019-03-21T04:46:42.760Z,64.60
2019-03-21T04:49:10.535Z,64.50
2019-03-21T04:51:38.405Z,64.50
2019-03-21T04:54:06.345Z,64.30
2019-03-21T04:56:36.516Z,64.30
2019-03-21T04:59:06.055Z,64.30
2019-03-21T05:01:33.472Z,64.30
2019-03-21T05:04:02.346Z,64.20
2019-03-21T05:06:32.754Z,64.40
2019-03-21T05:09:00.125Z,64.90
2019-03-21T05:11:28.140Z,64.50
2019-03-21T05:13:56.443Z,64.40
2019-03-21T05:16:24.379Z,64.70
2019-03-21T05:18:53.411Z,64.60
2019-03-21T05:21:21.368Z,64.70
2019-03-21T05:23:48.783Z,64.70
2019-03-21T05:26:16.320Z,64.80
2019-03-21T05:28:43.835Z,64.80
2019-03-21T05:31:14.979Z,65.00
2019-03-21T05:33:42.949Z,64.80
2019-03-21T05:36:10.972Z,65.10
2019-03-21T05:38:39.523Z,65.10
2019-03-21T05:41:07.308Z,64.70
2019-03-21T05:43:39.433Z,64.90
2019-03-21T05:46:06.946Z,65.10
2019-03-21T05:48:34.553Z,64.70
2019-03-21T05:51:02.834Z,65.30
2019-03-21T05:53:30.495Z,65.50
2019-03-21T05:55:59.920Z,65.40
2019-03-21T05:58:27.559Z,65.50
2019-03-21T06:00:56.867Z,65.20
2019-03-21T06:03:27.899Z,65.30
2019-03-21T06:05:59.452Z,65.10
2019-03-21T06:08:30.320Z,65.30
2019-03-21T06:10:59.263Z,65.50
2019-03-21T06:13:26.827Z,66.00
2019-03-21T06:15:54.270Z,66.10
2019-03-21T06:19:07.535Z,66.30
2019-03-21T06:22:05.539Z,66.40
2019-03-21T06:25:04.636Z,66.40
2019-03-21T06:27:32.371Z,65.90
2019-03-21T06:30:00.428Z,65.90
2019-03-21T06:32:28.307Z,66.40
2019-03-21T06:34:57.303Z,66.30
2019-03-21T06:37:28.327Z,66.30
2019-03-21T06:39:55.572Z,66.00
2019-03-21T06:42:25.152Z,66.10
2019-03-21T06:44:52.892Z,66.40
2019-03-21T06:47:20.559Z,66.50
2019-03-21T06:49:48.716Z,66.50
2019-03-21T06:52:16.644Z,66.20
2019-03-21T06:54:44.944Z,66.00
2019-03-21T06:57:12.359Z,66.10
2019-03-21T06:59:41.120Z,66.20
2019-03-21T07:02:10.560Z,65.70
2019-03-21T07:04:40.080Z,65.50
2019-03-21T07:07:08.743Z,65.80
2019-03-21T07:09:36.359Z,66.10
2019-03-21T07:12:05.814Z,66.10
2019-03-21T07:14:33.871Z,66.10
2019-03-21T07:17:01.425Z,64.00
2019-03-21T07:19:30.096Z,63.20
2019-03-21T07:21:59.837Z,62.00
2019-03-21T07:24:29.116Z,63.00
2019-03-21T07:26:57.002Z,62.80
2019-03-21T07:29:24.631Z,62.70
2019-03-21T07:31:52.315Z,63.50
2019-03-21T07:34:19.939Z,63.50
2019-03-21T07:36:48.956Z,63.90
2019-03-21T07:39:17.335Z,63.50
2019-03-21T07:41:44.883Z,62.10
2019-03-21T07:44:14.603Z,62.50
2019-03-21T07:46:43.365Z,62.10
2019-03-21T07:49:13.302Z,61.50
2019-03-21T07:51:44.971Z,60.50
2019-03-21T07:54:12.423Z,60.70
2019-03-21T07:56:39.948Z,60.00
2019-03-21T07:59:07.763Z,60.50
2019-03-21T08:01:35.649Z,60.90
2019-03-21T08:04:03.564Z,60.40
2019-03-21T08:06:31.844Z,60.60
2019-03-21T08:08:59.544Z,60.00
2019-03-21T08:11:27.307Z,60.30
2019-03-21T08:13:55.527Z,58.50
2019-03-21T08:16:23.692Z,58.80
2019-03-21T08:18:51.292Z,58.20
2019-03-21T08:21:19.949Z,57.30
2019-03-21T08:23:47.888Z,57.40
2019-03-21T08:26:15.991Z,57.30
2019-03-21T08:28:44.743Z,56.30
2019-03-21T08:31:16.231Z,57.10
2019-03-21T08:33:44.975Z,56.70
2019-03-21T08:36:13.469Z,56.60
2019-03-21T08:38:42.616Z,57.00
2019-03-21T08:41:10.579Z,56.80
2019-03-21T08:43:39.999Z,56.90
2019-03-21T08:46:07.476Z,57.20
2019-03-21T08:48:36.119Z,57.50
2019-03-21T08:51:08.645Z,57.40
2019-03-21T08:53:35.759Z,56.80
2019-03-21T08:56:04.765Z,56.80
2019-03-21T08:58:33.503Z,56.70
2019-03-21T09:01:02.063Z,56.30
2019-03-21T09:03:29.747Z,56.20
2019-03-21T09:05:57.449Z,55.80
2019-03-21T09:08:26.028Z,55.50
2019-03-21T09:10:53.805Z,54.80
2019-03-21T09:13:22.044Z,54.70
2019-03-21T09:15:50.714Z,54.10
2019-03-21T09:18:19.107Z,53.60
2019-03-21T09:20:46.760Z,52.50
2019-03-21T09:23:14.781Z,52.60
2019-03-21T09:25:43.359Z,52.20
2019-03-21T09:28:10.912Z,52.10
2019-03-21T09:30:39.691Z,52.00
2019-03-21T09:33:07.257Z,51.80
2019-03-21T09:35:35.943Z,51.50
2019-03-21T09:38:03.767Z,51.00
2019-03-21T09:40:32.096Z,49.50
2019-03-21T09:43:03.047Z,49.60
2019-03-21T09:45:30.692Z,49.70
2019-03-21T09:47:59.933Z,50.00
2019-03-21T09:50:28.772Z,50.40
2019-03-21T09:52:56.383Z,50.20
2019-03-21T09:55:25.464Z,50.10
2019-03-21T09:57:53.299Z,49.90
2019-03-21T10:00:38.847Z,49.60
2019-03-21T10:03:06.724Z,50.10
2019-03-21T10:05:36.275Z,49.90
2019-03-21T10:08:06.011Z,49.40
2019-03-21T10:10:34.233Z,48.90
2019-03-21T10:13:04.765Z,49.60
2019-03-21T10:15:33.465Z,49.40
2019-03-21T10:18:03.161Z,48.60
2019-03-21T10:20:31.254Z,48.10
2019-03-21T10:22:59.219Z,48.40
2019-03-21T10:25:27.024Z,48.30
2019-03-21T10:27:55.792Z,48.20
2019-03-21T10:30:35.127Z,48.00
2019-03-21T10:33:04.506Z,47.80
2019-03-21T10:35:32.750Z,48.20
2019-03-21T10:38:00.641Z,48.20
2019-03-21T10:40:28.488Z,47.90
2019-03-21T10:42:56.137Z,47.80
2019-03-21T10:45:24.911Z,47.80
2019-03-21T10:47:52.824Z,47.70
2019-03-21T10:50:28.840Z,47.30
2019-03-21T10:52:57.014Z,47.70
2019-03-21T10:55:25.703Z,47.50
2019-03-21T10:57:53.967Z,47.30
2019-03-21T11:00:22.786Z,47.70
2019-03-21T11:02:50.487Z,47.30
2019-03-21T11:05:18.529Z,46.90
2019-03-21T11:07:46.332Z,46.90
2019-03-21T11:10:15.736Z,46.80
2019-03-21T11:12:44.880Z,46.70
2019-03-21T11:15:13.092Z,46.30
2019-03-21T11:17:41.135Z,46.60
2019-03-21T11:20:09.174Z,46.30
2019-03-21T11:22:37.271Z,46.30
2019-03-21T11:25:05.147Z,46.60
2019-03-21T11:27:33.089Z,46.40
2019-03-21T11:30:01.139Z,46.00
2019-03-21T11:32:28.775Z,46.20
2019-03-21T11:34:56.520Z,46.50
2019-03-21T11:37:24.007Z,46.60
2019-03-21T11:39:51.603Z,46.20
2019-03-21T11:42:20.983Z,46.30
2019-03-21T11:44:48.509Z,46.70
2019-03-21T11:47:17.280Z,46.80
2019-03-21T11:49:46.364Z,46.70
2019-03-21T11:52:18.514Z,46.50
2019-03-21T11:54:44.316Z,46.60
2019-03-21T11:57:12.348Z,47.00
2019-03-21T11:59:51.167Z,47.00
2019-03-21T12:02:09.830Z,47.00
2019-03-21T12:04:37.383Z,46.40
2019-03-21T12:07:05.944Z,46.60
2019-03-21T12:09:33.767Z,46.40
2019-03-21T12:12:01.928Z,46.30
2019-03-21T12:14:29.434Z,46.40
2019-03-21T12:16:56.912Z,46.40
2019-03-21T12:19:24.637Z,46.60
2019-03-21T12:21:52.292Z,46.80
2019-03-21T12:24:19.708Z,46.80
2019-03-21T12:26:47.101Z,47.20
2019-03-21T12:29:16.292Z,47.00
2019-03-21T12:31:43.827Z,46.80
2019-03-21T12:34:13.164Z,47.00
2019-03-21T12:36:40.983Z,47.00
2019-03-21T12:39:09.038Z,47.20
2019-03-21T12:41:36.620Z,46.90
2019-03-21T12:44:04.467Z,46.60
2019-03-21T12:46:33.679Z,46.20
2019-03-21T12:49:01.876Z,46.20
2019-03-21T12:51:31.320Z,46.30
2019-03-21T12:53:59.459Z,46.10
2019-03-21T12:56:26.839Z,46.50
2019-03-21T12:58:56.416Z,46.60
2019-03-21T13:01:24.427Z,46.10
2019-03-21T13:03:51.996Z,46.00
2019-03-21T13:06:19.721Z,45.80
2019-03-21T13:08:47.788Z,46.00
2019-03-21T13:11:15.922Z,46.20
2019-03-21T13:13:43.554Z,46.30
2019-03-21T13:16:11.472Z,46.50
2019-03-21T13:18:40.473Z,46.50
2019-03-21T13:21:08.951Z,45.80
2019-03-21T13:23:37.420Z,45.40
2019-03-21T13:26:05.028Z,45.90
2019-03-21T13:28:32.427Z,45.40
2019-03-21T13:31:00.272Z,45.70
2019-03-21T13:33:28.819Z,45.80
2019-03-21T13:35:58.079Z,45.80
2019-03-21T13:38:26.359Z,45.70
2019-03-21T13:40:54.543Z,45.10
2019-03-21T13:43:21.984Z,45.20
2019-03-21T13:45:50.091Z,44.90
2019-03-21T13:48:17.939Z,44.70
2019-03-21T13:50:47.036Z,44.90
2019-03-21T13:53:18.842Z,45.10
2019-03-21T13:55:44.580Z,45.20
2019-03-21T13:58:12.007Z,45.00
2019-03-21T14:00:41.178Z,44.70
2019-03-21T14:03:09.927Z,44.30
2019-03-21T14:05:39.504Z,44.50
2019-03-21T14:08:07.048Z,44.40
2019-03-21T14:10:35.984Z,44.40
2019-03-21T14:13:04.451Z,44.40
2019-03-21T14:15:32.132Z,44.20
2019-03-21T14:18:01.475Z,44.00
2019-03-21T14:20:29.004Z,44.00
2019-03-21T14:22:58.143Z,44.00
2019-03-21T14:25:26.557Z,43.90
2019-03-21T14:27:54.635Z,44.00
2019-03-21T14:30:22.323Z,44.00
2019-03-21T14:32:50.199Z,43.80
2019-03-21T14:35:18.120Z,43.80
2019-03-21T14:37:45.779Z,44.00
2019-03-21T14:40:13.641Z,44.20
2019-03-21T14:42:42.185Z,43.80
2019-03-21T14:45:11.725Z,43.90
2019-03-21T14:47:40.411Z,44.20
2019-03-21T14:50:09.966Z,44.00
2019-03-21T14:52:38.883Z,43.90
2019-03-21T14:55:07.539Z,44.00
2019-03-21T14:57:35.290Z,43.70
2019-03-21T15:00:04.303Z,43.70
2019-03-21T15:02:31.691Z,43.50
2019-03-21T15:04:59.068Z,43.80
2019-03-21T15:07:27.807Z,44.10
2019-03-21T15:09:55.327Z,44.20
2019-03-21T15:12:24.177Z,44.20
2019-03-21T15:14:52.013Z,44.10
2019-03-21T15:17:19.672Z,44.30
2019-03-21T15:19:47.736Z,44.20
2019-03-21T15:22:16.661Z,44.40
2019-03-21T15:24:44.290Z,44.50
2019-03-21T15:27:13.115Z,44.50
2019-03-21T15:29:42.413Z,44.40
2019-03-21T15:32:10.487Z,44.40
2019-03-21T15:34:39.019Z,44.40
2019-03-21T15:37:07.183Z,44.80
2019-03-21T15:39:36.907Z,44.60
2019-03-21T15:42:04.563Z,44.60
2019-03-21T15:44:34.133Z,45.10
2019-03-21T15:47:01.767Z,44.60
2019-03-21T15:49:29.490Z,44.80
2019-03-21T15:51:57.783Z,45.00
2019-03-21T15:54:25.284Z,44.90
2019-03-21T15:56:52.764Z,45.00
2019-03-21T15:59:21.578Z,45.00
2019-03-21T16:01:49.196Z,45.10
2019-03-21T16:04:16.868Z,44.90
2019-03-21T16:06:46.191Z,45.00
2019-03-21T16:09:14.320Z,45.00
2019-03-21T16:11:41.887Z,44.70
2019-03-21T16:14:09.444Z,44.90
2019-03-21T16:16:37.563Z,45.20
2019-03-21T16:19:05.775Z,45.30
2019-03-21T16:21:33.162Z,45.30
2019-03-21T16:24:05.576Z,45.40
2019-03-21T16:26:31.679Z,45.50
2019-03-21T16:28:59.541Z,45.90
2019-03-21T16:31:27.348Z,45.90
2019-03-21T16:33:56.559Z,45.90
2019-03-21T16:36:24.681Z,45.80
2019-03-21T16:38:52.379Z,45.70
2019-03-21T16:41:21.644Z,45.80
2019-03-21T16:43:50.872Z,46.10
2019-03-21T16:46:18.600Z,46.20
2019-03-21T16:48:47.764Z,46.50
2019-03-21T16:51:15.647Z,46.50
2019-03-21T16:53:44.311Z,46.60
2019-03-21T16:56:12.965Z,46.70
2019-03-21T16:58:41.138Z,46.80
2019-03-21T17:01:09.888Z,46.80
2019-03-21T17:03:37.867Z,46.90
2019-03-21T17:06:05.540Z,47.20
2019-03-21T17:08:34.467Z,47.20
2019-03-21T17:11:03.071Z,47.30
2019-03-21T17:13:30.865Z,47.70
2019-03-21T17:16:00.580Z,47.70
2019-03-21T17:18:28.524Z,48.50
2019-03-21T17:20:57.056Z,49.20
2019-03-21T17:23:26.089Z,50.00
2019-03-21T17:25:53.607Z,50.50
2019-03-21T17:28:21.120Z,50.60
2019-03-21T17:30:49.984Z,49.40
2019-03-21T17:33:18.321Z,49.70
2019-03-21T17:35:46.175Z,49.80
2019-03-21T17:38:13.953Z,50.00
2019-03-21T17:40:42.169Z,50.00
2019-03-21T17:43:10.708Z,50.30
2019-03-21T17:45:38.495Z,50.30
2019-03-21T17:48:07.051Z,50.30
2019-03-21T17:50:34.812Z,50.80
2019-03-21T17:53:02.635Z,51.00
2019-03-21T17:55:30.784Z,51.30
2019-03-21T17:57:58.913Z,51.50
2019-03-21T18:00:27.927Z,52.00
2019-03-21T18:02:56.195Z,52.60
2019-03-21T18:05:23.923Z,52.70
2019-03-21T18:07:51.896Z,52.60
2019-03-21T18:10:28.130Z,53.00
2019-03-21T18:12:57.343Z,53.00
2019-03-21T18:15:24.999Z,53.10
2019-03-21T18:17:53.087Z,53.10
2019-03-21T18:20:21.471Z,53.50
2019-03-21T18:22:49.172Z,53.40
2019-03-21T18:25:16.960Z,53.80
2019-03-21T18:27:46.835Z,54.10
2019-03-21T18:30:14.820Z,54.30
2019-03-21T18:32:42.991Z,54.10
2019-03-21T18:35:12.236Z,54.40
2019-03-21T18:37:39.885Z,54.60
2019-03-21T18:40:11.339Z,54.80
2019-03-21T18:42:39.254Z,54.70
2019-03-21T18:45:07.611Z,54.90
2019-03-21T18:47:36.026Z,55.00
2019-03-21T18:50:05.206Z,54.70
2019-03-21T18:52:33.243Z,55.00
2019-03-21T18:55:06.628Z,55.30
2019-03-21T18:57:32.715Z,55.30
2019-03-21T19:00:01.254Z,55.40
2019-03-21T19:02:28.948Z,55.30
2019-03-21T19:04:56.723Z,55.50
2019-03-21T19:07:24.928Z,55.60
2019-03-21T19:09:52.816Z,55.70
2019-03-21T19:12:21.983Z,55.70
2019-03-21T19:14:49.487Z,55.80
2019-03-21T19:17:16.915Z,56.00
2019-03-21T19:19:44.712Z,56.00
2019-03-21T19:22:12.451Z,56.10
2019-03-21T19:24:40.073Z,56.10
2019-03-21T19:27:08.904Z,56.20
2019-03-21T19:29:36.887Z,56.30
2019-03-21T19:32:04.467Z,56.50
2019-03-21T19:34:32.151Z,56.60
2019-03-21T19:37:01.820Z,56.90
2019-03-21T19:39:29.213Z,57.00
2019-03-21T19:41:57.099Z,56.70
2019-03-21T19:44:24.836Z,56.70
2019-03-21T19:46:53.096Z,57.00
2019-03-21T19:49:20.775Z,57.00
2019-03-21T19:51:49.771Z,56.90
2019-03-21T19:54:17.411Z,56.90
2019-03-21T19:56:44.932Z,57.30
2019-03-21T19:59:13.061Z,57.60
2019-03-21T20:01:41.684Z,58.00
2019-03-21T20:04:09.492Z,58.30
2019-03-21T20:06:37.144Z,58.70
2019-03-21T20:09:06.477Z,58.60
2019-03-21T20:11:34.801Z,58.60
2019-03-21T20:14:03.989Z,58.50
2019-03-21T20:16:32.420Z,58.60
2019-03-21T20:19:00.371Z,59.10
2019-03-21T20:21:28.652Z,59.10
2019-03-21T20:23:57.017Z,59.80
2019-03-21T20:26:25.107Z,59.20
2019-03-21T20:28:53.196Z,59.10
2019-03-21T20:31:20.717Z,59.10
2019-03-21T20:33:48.671Z,59.60
2019-03-21T20:36:16.164Z,59.80
2019-03-21T20:38:43.904Z,60.20
2019-03-21T20:41:11.843Z,59.80
2019-03-21T20:43:39.527Z,59.60
2019-03-21T20:46:07.692Z,59.60
2019-03-21T20:48:34.571Z,59.50
2019-03-21T20:51:02.088Z,59.50
2019-03-21T20:53:30.400Z,59.40
2019-03-21T20:55:58.627Z,59.60
2019-03-21T20:58:26.846Z,59.60
2019-03-21T21:00:54.343Z,59.60
2019-03-21T21:03:22.851Z,59.60
2019-03-21T21:05:50.274Z,59.90
2019-03-21T21:08:17.907Z,60.20
2019-03-21T21:10:45.464Z,60.30
2019-03-21T21:13:14.072Z,60.60
2019-03-21T21:15:42.116Z,60.90
2019-03-21T21:18:09.844Z,60.80
2019-03-21T21:20:38.952Z,61.00
2019-03-21T21:23:10.995Z,61.20
2019-03-21T21:25:38.543Z,61.70
2019-03-21T21:28:06.151Z,61.20
2019-03-21T21:30:34.196Z,60.80
2019-03-21T21:33:01.583Z,60.60
2019-03-21T21:35:29.112Z,60.60
2019-03-21T21:37:57.287Z,60.60
2019-03-21T21:40:24.847Z,60.70
2019-03-21T21:42:53.904Z,60.70
2019-03-21T21:45:21.751Z,60.60
2019-03-21T21:47:49.823Z,60.50
2019-03-21T21:50:18.542Z,61.20
2019-03-21T21:52:47.195Z,61.70
2019-03-21T21:55:15.654Z,61.70
2019-03-21T21:57:43.909Z,61.50
2019-03-21T22:00:13.927Z,61.20
2019-03-21T22:02:42.011Z,61.40
2019-03-21T22:05:10.163Z,61.70
2019-03-21T22:07:38.391Z,62.10
2019-03-21T22:10:07.607Z,61.20
2019-03-21T22:12:35.139Z,61.90
2019-03-21T22:15:03.108Z,61.60
2019-03-21T22:17:31.424Z,61.80
2019-03-21T22:19:59.575Z,62.40
2019-03-21T22:22:27.108Z,62.60
2019-03-21T22:24:55.988Z,62.30
2019-03-21T22:27:24.514Z,62.40
2019-03-21T22:29:52.565Z,62.40
2019-03-21T22:32:20.712Z,62.10
2019-03-21T22:34:48.935Z,62.30
2019-03-21T22:37:17.180Z,62.70
2019-03-21T22:39:44.857Z,62.90
2019-03-21T22:42:14.183Z,62.90
2019-03-21T22:44:41.911Z,63.20
2019-03-21T22:47:09.584Z,63.10
2019-03-21T22:49:37.208Z,62.80
2019-03-21T22:52:05.160Z,63.10
2019-03-21T22:54:34.040Z,63.40
2019-03-21T22:57:01.681Z,63.70
2019-03-21T22:59:29.736Z,63.40
2019-03-21T23:01:58.236Z,63.30
2019-03-21T23:04:26.496Z,63.10
2019-03-21T23:06:54.123Z,63.10
2019-03-21T23:09:21.971Z,63.20
2019-03-21T23:11:49.629Z,63.00
2019-03-21T23:14:17.128Z,63.10
2019-03-21T23:16:44.828Z,63.00
2019-03-21T23:19:13.847Z,63.10
2019-03-21T23:21:41.764Z,63.80
2019-03-21T23:24:09.963Z,62.90
2019-03-21T23:26:38.023Z,62.90
2019-03-21T23:29:06.267Z,62.80
2019-03-21T23:31:33.980Z,63.10
2019-03-21T23:34:02.552Z,62.90
2019-03-21T23:36:30.595Z,63.00
2019-03-21T23:38:58.520Z,63.00
2019-03-21T23:41:26.531Z,62.50
2019-03-21T23:43:54.535Z,62.10
2019-03-21T23:46:22.112Z,61.90
2019-03-21T23:48:49.776Z,61.90
2019-03-21T23:51:17.273Z,61.70
2019-03-21T23:53:45.992Z,60.70
2019-03-21T23:56:13.403Z,61.40
2019-03-21T23:58:42.500Z,61.50
